Latest Weather Observations for Tasman Island

IDT60801

Issued at 9:35 pm EDT Friday 28 November 2014 (issued every 30 minutes, with the page automatically refreshed every 10 minutes)

About weather observations | Map of weather stations | Latest weather observations for TAS | Other Formats
Station Details ID: 094155 Name: TASMAN ISLAND Lat: -43.24 Lon: 148.00 Height: 240.0 m
Data from the previous 72 hours. | See also: Recent months at Tasman Island
Date/Time
EDT
Temp
°C
App
Temp
°C
Dew
Point
Rel
Hum
%
Delta-T
°C
Wind Press
QNH
hPa
Press
MSL
hPa
Rain
since 9 am
mm
Dir
 
Spd
km/h
Gust
km/h
Spd
kts
Gust
kts
28/09:30pm 10.4 7.9 9.6 95 0.4 SW 13 30 7 16 1021.2 1021.2 0.0
28/09:00pm 10.6 7.7 9.8 95 0.4 SSW 15 30 8 16 1021.2 1021.2 0.0
28/08:30pm 10.6 8.4 9.5 93 0.6 SW 11 26 6 14 1021.1 1021.1 0.0
28/08:00pm 10.7 7.7 9.3 91 0.7 SW 15 35 8 19 1021.1 1021.1 0.0
28/07:30pm 10.8 7.4 9.1 89 0.9 SW 17 28 9 15 1021.1 1021.1 0.0
28/07:00pm 10.9 6.7 8.3 84 1.3 SW 20 37 11 20 1021.0 1021.0 0.0
28/06:30pm 11.1 6.3 8.7 85 1.2 SW 24 32 13 17 1020.9 1020.9 0.0
28/06:00pm 11.3 7.0 8.0 80 1.6 SW 20 32 11 17 1021.1 1021.1 0.0
28/05:30pm 11.4 5.9 7.7 78 1.8 SW 26 39 14 21 1021.2 1021.2 0.0
28/05:00pm 11.8 7.1 7.9 77 1.9 SSW 22 37 12 20 1021.1 1021.1 0.0
28/04:30pm 12.9 8.0 8.6 75 2.2 SW 24 37 13 20 1021.2 1021.2 0.0
28/04:00pm 12.9 7.2 8.2 73 2.3 SW 28 35 15 19 1021.2 1021.2 0.0
28/03:30pm 13.0 8.6 7.2 68 2.8 SW 20 30 11 16 1021.3 1021.4 0.0
28/03:00pm 13.5 10.8 7.5 67 3.0 WSW 11 22 6 12 1021.4 1021.5 0.0
28/02:30pm 12.7 9.5 6.7 67 2.9 WSW 13 24 7 13 1021.5 1021.6 0.0
28/02:00pm 12.6 9.3 6.2 65 3.1 SW 13 22 7 12 1021.7 1021.8 0.0
28/01:30pm 12.6 8.8 5.8 63 3.2 SW 15 22 8 12 1021.8 1021.9 0.0
28/01:00pm 12.8 9.6 5.0 59 3.6 W 11 22 6 12 1022.0 1022.1 0.0
28/12:30pm 12.0 9.1 4.7 61 3.4 NW 9 22 5 12 1022.1 1022.2 0.0
28/12:00pm 12.1 9.6 4.8 61 3.4 NNW 7 22 4 12 1022.3 1022.4 0.0
28/11:30am 11.1 7.8 4.6 64 3.0 WSW 11 22 6 12 1022.6 1022.7 0.0
28/11:00am 11.7 9.2 4.9 63 3.1 W 7 17 4 9 1022.6 1022.7 0.0
28/10:30am 10.9 7.9 3.9 62 3.1 SW 9 22 5 12 1022.8 1022.9 0.0
28/10:00am 10.9 8.3 3.2 59 3.4 NW 6 19 3 10 1022.8 1022.9 0.0
28/09:30am 10.7 8.0 3.5 61 3.2 NE 7 20 4 11 1022.9 1023.0 0.0
28/09:00am 10.9 8.4 4.6 65 2.9 NNE 7 20 4 11 1022.9 1023.0 0.0
28/08:30am 10.5 7.9 4.2 65 2.8 ENE 7 19 4 10 1022.6 1022.7 0.0
28/08:00am 9.7 6.6 3.4 65 2.8 NNE 9 28 5 15 1022.8 1022.9 0.0
28/07:30am 9.6 6.5 3.6 66 2.6 W 9 26 5 14 1022.6 1022.7 0.0
28/07:00am 9.3 5.4 3.3 66 2.6 WSW 13 32 7 17 1022.7 1022.8 0.0
28/06:30am 9.2 5.4 4.0 70 2.3 WSW 13 33 7 18 1022.5 1022.6 0.0
28/06:00am 9.0 4.8 4.0 71 2.2 WSW 15 35 8 19 1022.3 1022.4 0.0
28/05:30am 9.1 6.1 3.9 70 2.3 S 9 30 5 16 1022.2 1022.3 0.0
28/05:00am 9.1 6.5 4.1 71 2.2 SSW 7 20 4 11 1022.2 1022.3 0.0
28/04:30am 9.0 5.7 4.6 74 2.0 WSW 11 30 6 16 1022.3 1022.4 0.0
28/04:00am 9.0 5.9 3.8 70 2.3 WSW 9 28 5 15 1022.2 1022.3 0.0
28/03:30am 8.9 6.5 5.1 77 1.7 SW 7 26 4 14 1022.1 1022.2 0.0
28/03:00am 9.0 6.9 5.9 81 1.4 NE 6 17 3 9 1022.3 1022.4 0.0
28/02:30am 9.2 6.1 5.4 77 1.7 WSW 11 30 6 16 1022.4 1022.5 0.0
28/02:00am 9.3 4.9 4.7 73 2.1 SW 17 32 9 17 1022.5 1022.6 0.0
28/01:30am 9.3 4.8 4.3 71 2.2 SW 17 44 9 24 1022.6 1022.7 0.0
28/01:10am 9.3 2.7 4.3 71 2.2 SSW 28 48 15 26 1022.7 1022.8 0.0
28/01:00am 9.3 3.9 4.5 72 2.1 SSW 22 46 12 25 1022.9 1023.0 0.0
28/12:30am 9.2 2.5 3.8 69 2.4 SW 28 41 15 22 1023.0 1023.1 0.0
28/12:00am 9.2 2.6 4.0 70 2.3 SW 28 44 15 24 1023.2 1023.2 0.0
 
Date/Time
EDT
Temp
°C
App
Temp
°C
Dew
Point
Rel
Hum
%
Delta-T
°C
Wind Press
QNH
hPa
Press
MSL
hPa
Rain
since 9 am
mm
Dir
 
Spd
km/h
Gust
km/h
Spd
kts
Gust
kts
27/11:33pm 9.2 2.6 4.2 71 2.2 SSW 28 48 15 26 1023.3 1023.3 0.0
27/11:30pm 9.2 2.9 4.0 70 2.3 SSW 26 48 14 26 1023.3 1023.3 0.0
27/11:21pm 9.3 2.8 4.7 73 2.1 SW 28 46 15 25 1023.3 1023.3 0.0
27/11:00pm 9.2 2.6 4.4 72 2.1 SSW 28 43 15 23 1023.5 1023.5 0.0
27/10:30pm 9.1 1.6 4.5 73 2.1 SW 33 56 18 30 1023.7 1023.7 0.0
27/10:04pm 9.0 2.6 5.2 77 1.7 SSW 28 50 15 27 1023.8 1023.8 0.0
27/10:00pm 9.0 1.8 5.0 76 1.8 SW 32 48 17 26 1023.7 1023.7 0.0
27/09:30pm 8.9 2.6 5.6 80 1.5 SSW 28 48 15 26 1023.5 1023.5 0.0
27/09:04pm 9.1 2.2 6.4 83 1.3 SW 32 52 17 28 1023.6 1023.6 0.0
27/09:00pm 8.9 1.3 5.8 81 1.4 SW 35 52 19 28 1023.6 1023.6 0.0
27/08:38pm 8.9 2.3 6.2 83 1.3 SSW 30 54 16 29 1023.3 1023.3 0.0
27/08:30pm 9.0 2.0 5.9 81 1.4 SSW 32 48 17 26 1023.3 1023.3 0.0
27/08:01pm 9.1 2.5 6.0 81 1.4 SSW 30 48 16 26 1022.9 1023.0 0.0
27/08:00pm 9.0 2.0 5.9 81 1.4 SSW 32 48 17 26 1022.9 1023.0 0.0
27/07:45pm 9.2 2.5 5.6 78 1.7 SSW 30 50 16 27 1023.0 1023.1 0.0
27/07:30pm 9.4 2.7 5.8 78 1.7 SSW 30 46 16 25 1023.0 1023.1 0.0
27/07:00pm 9.6 1.6 5.8 77 1.8 SSW 37 57 20 31 1022.8 1022.9 0.0
27/06:30pm 9.8 2.7 6.5 80 1.6 SSW 33 56 18 30 1022.8 1022.9 0.0
27/06:00pm 10.0 2.6 6.7 80 1.6 SSW 35 54 19 29 1022.7 1022.8 0.0
27/05:30pm 10.3 1.2 7.0 80 1.6 SW 44 65 24 35 1022.5 1022.6 0.0
27/05:00pm 10.7 2.2 7.0 78 1.8 SSW 41 63 22 34 1022.5 1022.6 0.0
27/04:30pm 10.2 -0.5 6.4 77 1.8 SW 52 70 28 38 1022.6 1022.7 0.0
27/04:00pm 9.9 -0.7 5.3 73 2.1 SW 50 72 27 39 1022.5 1022.6 0.0
27/03:30pm 11.1 1.2 6.8 75 2.1 SW 48 80 26 43 1022.6 1022.7 0.0
27/03:00pm 11.0 -1.1 6.2 72 2.3 SW 59 85 32 46 1022.4 1022.5 0.0
27/02:30pm 10.4 -1.2 6.0 74 2.1 SW 56 78 30 42 1022.5 1022.6 0.0
27/02:03pm 10.9 -0.6 6.3 73 2.2 SW 56 76 30 41 1022.3 1022.4 0.0
27/02:00pm 10.8 -0.9 6.4 74 2.1 SW 57 74 31 40 1022.3 1022.4 0.0
27/01:30pm 9.8 -0.1 6.5 80 1.6 SW 48 70 26 38 1022.3 1022.4 0.0
27/01:00pm 10.5 1.1 7.0 79 1.7 SW 46 72 25 39 1022.3 1022.4 0.0
27/12:30pm 9.9 1.6 6.3 78 1.7 SW 39 72 21 39 1022.5 1022.6 0.0
27/12:00pm 9.5 0.9 6.4 81 1.5 SW 41 80 22 43 1022.3 1022.4 0.0
27/11:59am 9.4 0.8 6.3 81 1.5 SW 41 80 22 43 1022.3 1022.4 0.0
27/11:32am 9.8 3.6 6.2 78 1.7 SW 28 59 15 32 1022.3 1022.4 0.0
27/11:30am 10.1 4.3 6.1 76 1.9 WSW 26 56 14 30 1022.4 1022.5 0.0
27/11:17am 9.8 3.4 5.4 74 2.0 SW 28 63 15 34 1022.2 1022.3 0.0
27/11:00am 10.1 4.6 6.1 76 1.9 WSW 24 48 13 26 1022.2 1022.3 0.0
27/10:40am 9.6 3.2 5.4 75 1.9 WSW 28 57 15 31 1022.2 1022.3 0.0
27/10:30am 10.0 3.9 4.6 69 2.4 WSW 26 59 14 32 1022.2 1022.3 0.0
27/10:00am 9.7 3.3 5.1 73 2.1 WSW 28 65 15 35 1022.2 1022.3 0.0
27/09:30am 9.7 2.6 3.7 66 2.7 WSW 30 63 16 34 1022.0 1022.1 0.0
27/09:00am 9.3 0.9 3.5 67 2.5 SW 37 69 20 37 1021.9 1022.0 1.4
27/08:30am 9.5 2.0 4.7 72 2.2 SW 33 67 18 36 1021.7 1021.8 1.4
27/08:00am 9.1 2.7 5.3 77 1.7 WSW 28 61 15 33 1021.4 1021.5 1.4
27/07:30am 9.3 1.9 5.1 75 1.9 WSW 33 59 18 32 1021.1 1021.1 1.4
27/07:08am 9.3 2.6 3.9 69 2.4 WSW 28 63 15 34 1020.8 1020.8 1.4
27/07:00am 9.3 3.4 3.9 69 2.4 SW 24 57 13 31 1020.7 1020.7 1.4
27/06:30am 9.1 1.3 2.9 65 2.7 SW 33 61 18 33 1020.4 1020.4 1.4
27/06:04am 9.1 2.3 3.3 67 2.5 SW 28 74 15 40 1020.0 1020.0 1.4
27/06:00am 8.8 2.2 4.4 74 2.0 SW 28 52 15 28 1020.1 1020.1 1.4
27/05:30am 8.8 0.3 5.2 78 1.6 SW 39 72 21 39 1019.9 1019.9 1.4
27/05:00am 8.9 1.6 5.6 80 1.5 SW 33 80 18 43 1019.4 1019.4 1.4
27/04:59am 9.1 2.1 6.0 81 1.4 SW 32 80 17 43 1019.4 1019.4 1.4
27/04:30am 9.3 2.5 3.3 66 2.6 WSW 28 59 15 32 1019.2 1019.2 1.4
27/04:00am 9.1 1.5 3.7 69 2.4 SW 33 76 18 41 1018.7 1018.8 1.4
27/03:30am 9.0 1.2 4.8 75 1.9 SW 35 72 19 39 1018.6 1018.7 1.4
27/03:00am 9.4 2.1 2.3 61 3.0 SW 30 63 16 34 1018.4 1018.5 1.4
27/02:30am 8.7 1.7 4.3 74 2.0 SW 30 61 16 33 1018.7 1018.8 1.4
27/02:01am 9.1 2.5 4.1 71 2.2 SW 28 65 15 35 1018.7 1018.8 1.4
27/02:00am 9.2 3.0 4.2 71 2.2 SW 26 65 14 35 1018.9 1018.9 1.4
27/01:30am 9.0 1.6 3.8 70 2.3 SW 32 65 17 35 1018.7 1018.8 1.4
27/01:18am 8.9 -0.1 4.7 75 1.9 SW 41 74 22 40 1018.9 1018.9 1.4
27/01:00am 9.0 2.8 6.3 83 1.3 WSW 28 56 15 30 1018.9 1018.9 1.4
27/12:30am 9.1 2.5 4.1 71 2.2 WSW 28 67 15 36 1019.0 1019.0 1.4
27/12:00am 9.1 2.2 4.5 73 2.1 WSW 30 69 16 37 1018.9 1018.9 1.4
 
Date/Time
EDT
Temp
°C
App
Temp
°C
Dew
Point
Rel
Hum
%
Delta-T
°C
Wind Press
QNH
hPa
Press
MSL
hPa
Rain
since 9 am
mm
Dir
 
Spd
km/h
Gust
km/h
Spd
kts
Gust
kts
26/11:30pm 8.7 -0.1 7.2 90 0.7 SW 43 76 23 41 1018.7 1018.8 1.4
26/11:26pm 8.9 1.3 7.5 91 0.7 SW 37 61 20 33 1018.6 1018.7 1.4
26/11:25pm 9.1 1.5 7.5 90 0.8 SSW 37 54 20 29 1018.7 1018.8 1.4
26/11:00pm 9.6 3.7 5.8 77 1.8 WSW 26 67 14 36 1018.6 1018.7 1.2
26/10:30pm 9.4 3.2 6.3 81 1.5 WSW 28 63 15 34 1018.9 1018.9 1.2
26/10:12pm 9.5 3.3 6.0 79 1.6 WSW 28 61 15 33 1018.5 1018.6 1.2
26/10:00pm 9.6 7.0 6.1 79 1.6 S 9 32 5 17 1018.6 1018.7 1.2
26/09:30pm 9.6 3.3 5.8 77 1.8 WSW 28 59 15 32 1018.4 1018.5 1.2
26/09:00pm 9.6 4.1 6.1 79 1.6 WSW 24 57 13 31 1017.9 1018.0 1.2
26/08:30pm 9.5 3.0 6.4 81 1.5 WSW 30 59 16 32 1017.6 1017.6 1.2
26/08:00pm 8.9 2.6 7.2 89 0.8 WSW 30 67 16 36 1017.3 1017.3 1.2
26/07:30pm 9.3 2.0 7.4 88 0.9 WSW 35 67 19 36 1017.1 1017.1 1.2
26/07:07pm 9.3 3.3 6.9 85 1.1 SW 28 63 15 34 1016.6 1016.6 1.2
26/07:00pm 9.7 4.1 7.0 83 1.3 SW 26 57 14 31 1016.5 1016.5 1.2
26/06:30pm 9.5 2.3 7.6 88 0.9 SW 35 69 19 37 1016.4 1016.4 1.2
26/06:00pm 9.5 2.7 7.1 85 1.1 WSW 32 59 17 32 1015.9 1015.9 1.2
26/05:30pm 10.1 3.3 7.0 81 1.5 SW 32 69 17 37 1015.7 1015.7 1.2
26/05:00pm 10.9 4.7 7.8 81 1.5 SW 30 61 16 33 1015.6 1015.6 1.2
26/04:30pm 10.0 3.8 6.3 78 1.7 WSW 28 63 15 34 1015.5 1015.5 1.2
26/04:00pm 10.6 4.6 6.9 78 1.8 SW 28 61 15 33 1015.3 1015.3 1.2
26/03:30pm 11.2 3.8 5.1 66 2.8 SW 33 70 18 38 1015.1 1015.1 1.2
26/03:00pm 10.7 4.0 5.5 70 2.4 SW 30 67 16 36 1014.9 1014.9 1.2
26/02:39pm 11.1 5.0 6.8 75 2.1 WSW 28 70 15 38 1014.7 1014.7 1.2
26/02:30pm 10.8 5.3 7.5 80 1.6 SW 26 54 14 29 1014.8 1014.8 1.2
26/02:00pm 10.8 4.3 6.6 75 2.0 WSW 30 59 16 32 1014.6 1014.6 1.2
26/01:38pm 8.8 2.9 7.4 91 0.7 SW 28 61 15 33 1014.5 1014.5 1.2
26/01:30pm 10.9 5.5 6.3 73 2.2 SW 24 52 13 28 1014.5 1014.5 1.2
26/01:02pm 10.4 4.3 6.4 76 1.9 WSW 28 65 15 35 1014.1 1014.1 1.2
26/01:00pm 10.5 5.2 6.6 77 1.9 WSW 24 65 13 35 1014.0 1014.0 1.2
26/12:30pm 8.9 3.0 7.7 92 0.6 WSW 28 63 15 34 1013.9 1013.9 1.2
26/12:25pm 8.8 3.0 8.0 95 0.4 WSW 28 61 15 33 1013.9 1013.9 1.2
26/12:00pm 8.9 3.2 6.9 87 0.9 WSW 26 57 14 31 1013.6 1013.6 0.4
26/11:30am 10.7 3.9 5.3 69 2.5 SW 30 65 16 35 1013.1 1013.1 0.4
26/11:18am 10.3 4.0 5.9 74 2.1 WSW 28 61 15 33 1013.0 1013.0 0.4
26/11:00am 9.7 5.3 6.6 81 1.5 NW 19 50 10 27 1012.9 1012.9 0.4
26/10:30am 9.1 5.4 6.5 84 1.2 WSW 15 48 8 26 1012.7 1012.7 0.4
26/10:00am 8.4 1.8 5.9 84 1.2 WSW 30 65 16 35 1012.0 1012.0 0.4
26/09:39am 8.9 2.1 5.3 78 1.6 WSW 30 67 16 36 1011.7 1011.7 0.2
26/09:30am 9.7 4.7 4.7 71 2.3 WSW 20 52 11 28 1011.8 1011.8 0.2
26/09:00am 10.3 6.4 3.6 63 3.0 NW 13 43 7 23 1011.1 1011.1 0.8
26/08:30am 10.5 6.6 3.3 61 3.2 N 13 43 7 23 1010.7 1010.6 0.8
26/08:00am 10.1 6.4 4.3 67 2.6 WNW 13 43 7 23 1010.5 1010.4 0.8
26/07:30am 9.9 5.6 3.2 63 2.9 NW 15 39 8 21 1009.7 1009.7 0.8
26/07:00am 10.1 6.6 3.6 64 2.9 NNW 11 32 6 17 1009.9 1009.9 0.8
26/06:30am 9.8 5.8 2.9 62 3.0 NE 13 48 7 26 1009.0 1009.0 0.8
26/06:00am 9.4 5.7 4.2 70 2.3 NNE 13 32 7 17 1008.8 1008.8 0.8
26/05:30am 9.4 5.6 3.8 68 2.5 NE 13 41 7 22 1008.4 1008.4 0.8
26/05:00am 9.5 4.0 3.9 68 2.5 WSW 22 61 12 33 1008.0 1008.0 0.8
26/04:45am 9.3 2.8 4.9 74 2.0 WSW 28 59 15 32 1007.8 1007.8 0.8
26/04:30am 9.3 3.4 5.7 78 1.7 WSW 26 52 14 28 1007.7 1007.7 0.8
26/04:00am 9.2 2.8 6.8 85 1.1 SW 30 57 16 31 1007.8 1007.8 0.8
26/03:55am 9.3 3.4 7.3 87 1.0 SW 28 61 15 33 1007.7 1007.7 0.8
26/03:30am 8.9 4.2 7.8 93 0.5 SW 22 52 12 28 1007.7 1007.7 0.8
26/03:17am 8.9 3.3 8.8 99 0.0 SW 28 57 15 31 1007.7 1007.7 0.6
26/03:00am 8.9 4.8 8.8 99 0.0 SW 20 46 11 25 1007.8 1007.8 0.6
26/02:30am 10.2 6.7 7.1 81 1.5 NW 15 32 8 17 1007.7 1007.7 0.4
26/02:04am 10.4 2.6 6.5 77 1.9 WNW 37 65 20 35 1007.5 1007.5 0.2
26/02:00am 10.5 2.6 6.3 75 2.0 WNW 37 54 20 29 1007.5 1007.5 0.2
26/01:30am 10.8 1.9 5.1 68 2.6 NW 41 59 22 32 1007.5 1007.5 0.2
26/01:03am 10.8 3.4 5.1 68 2.6 NW 33 54 18 29 1007.7 1007.7 0.2
26/01:00am 10.6 3.4 5.2 69 2.5 NW 32 44 17 24 1007.8 1007.8 0.2
26/12:30am 10.4 3.2 4.8 68 2.6 NW 32 46 17 25 1008.3 1008.3 0.2
26/12:05am 10.6 3.1 4.5 66 2.8 NW 33 52 18 28 1008.5 1008.5 0.2
26/12:00am 10.4 2.5 4.5 67 2.7 NW 35 52 19 28 1008.6 1008.6 0.2
 
Date/Time
EDT
Temp
°C
App
Temp
°C
Dew
Point
Rel
Hum
%
Delta-T
°C
Wind Press
QNH
hPa
Press
MSL
hPa
Rain
since 9 am
mm
Dir
 
Spd
km/h
Gust
km/h
Spd
kts
Gust
kts
25/11:30pm 10.8 5.9 5.3 69 2.5 NW 20 46 11 25 1009.2 1009.2 0.2
25/11:00pm 10.4 4.2 4.5 67 2.7 WNW 26 46 14 25 1009.4 1009.4 0.2
25/10:52pm 10.6 4.1 4.5 66 2.8 WNW 28 52 15 28 1009.4 1009.4 0.2
25/10:30pm 10.4 6.7 4.5 67 2.7 WNW 13 37 7 20 1009.5 1009.5 0.2
25/10:00pm 10.6 6.5 4.3 65 2.9 WNW 15 48 8 26 1009.7 1009.7 0.2

Other Formats:

Comma delimited format used in spreadsheet applications
http://www.bom.gov.au/fwo/IDT60801/IDT60801.95986.axf

JavaScript Object Notation format (JSON) in row-major order
http://www.bom.gov.au/fwo/IDT60801/IDT60801.95986.json